sensor_id;sensor_type;location;lat;lon;timestamp;P1;durP1;ratioP1;P2;durP2;ratioP2
68273;SDS011;55104;47.356;19.448;2023-12-14T00:00:40;15.70;;;6.22;;
68273;SDS011;55104;47.356;19.448;2023-12-14T00:03:42;13.27;;;4.75;;
68273;SDS011;55104;47.356;19.448;2023-12-14T00:06:49;20.50;;;5.80;;
68273;SDS011;55104;47.356;19.448;2023-12-14T00:09:51;9.48;;;4.63;;
68273;SDS011;55104;47.356;19.448;2023-12-14T00:12:53;15.07;;;4.57;;
68273;SDS011;55104;47.356;19.448;2023-12-14T00:15:57;13.60;;;5.88;;
68273;SDS011;55104;47.356;19.448;2023-12-14T00:18:59;15.57;;;5.50;;
68273;SDS011;55104;47.356;19.448;2023-12-14T00:22:01;19.30;;;5.88;;
68273;SDS011;55104;47.356;19.448;2023-12-14T00:25:03;13.27;;;5.38;;
68273;SDS011;55104;47.356;19.448;2023-12-14T00:28:06;12.07;;;4.40;;
68273;SDS011;55104;47.356;19.448;2023-12-14T00:31:08;14.55;;;4.47;;
68273;SDS011;55104;47.356;19.448;2023-12-14T00:34:11;7.30;;;2.67;;
68273;SDS011;55104;47.356;19.448;2023-12-14T00:37:13;7.20;;;2.80;;
68273;SDS011;55104;47.356;19.448;2023-12-14T00:40:16;8.40;;;3.40;;
68273;SDS011;55104;47.356;19.448;2023-12-14T00:43:18;7.05;;;2.15;;
68273;SDS011;55104;47.356;19.448;2023-12-14T00:46:20;10.13;;;4.22;;
68273;SDS011;55104;47.356;19.448;2023-12-14T00:49:22;11.30;;;3.88;;
68273;SDS011;55104;47.356;19.448;2023-12-14T00:52:25;5.90;;;3.13;;
68273;SDS011;55104;47.356;19.448;2023-12-14T00:55:27;8.20;;;2.35;;
68273;SDS011;55104;47.356;19.448;2023-12-14T00:58:29;9.60;;;3.20;;
68273;SDS011;55104;47.356;19.448;2023-12-14T01:01:31;7.28;;;2.92;;
68273;SDS011;55104;47.356;19.448;2023-12-14T01:04:34;11.55;;;3.35;;
68273;SDS011;55104;47.356;19.448;2023-12-14T01:07:36;11.00;;;3.50;;
68273;SDS011;55104;47.356;19.448;2023-12-14T01:10:39;7.65;;;2.85;;
68273;SDS011;55104;47.356;19.448;2023-12-14T01:13:41;7.38;;;3.15;;
68273;SDS011;55104;47.356;19.448;2023-12-14T01:16:43;6.25;;;2.78;;
68273;SDS011;55104;47.356;19.448;2023-12-14T01:19:45;6.57;;;2.58;;
68273;SDS011;55104;47.356;19.448;2023-12-14T01:22:47;15.82;;;3.60;;
68273;SDS011;55104;47.356;19.448;2023-12-14T01:25:50;5.78;;;2.17;;
68273;SDS011;55104;47.356;19.448;2023-12-14T01:28:52;6.87;;;2.77;;
68273;SDS011;55104;47.356;19.448;2023-12-14T01:31:55;8.25;;;3.10;;
68273;SDS011;55104;47.356;19.448;2023-12-14T01:34:57;7.13;;;3.53;;
68273;SDS011;55104;47.356;19.448;2023-12-14T01:37:59;14.23;;;4.27;;
68273;SDS011;55104;47.356;19.448;2023-12-14T01:41:02;11.60;;;3.72;;
68273;SDS011;55104;47.356;19.448;2023-12-14T01:44:04;6.60;;;3.08;;
68273;SDS011;55104;47.356;19.448;2023-12-14T01:47:07;9.13;;;2.53;;
68273;SDS011;55104;47.356;19.448;2023-12-14T01:50:09;5.25;;;2.47;;
68273;SDS011;55104;47.356;19.448;2023-12-14T01:53:12;8.30;;;3.28;;
68273;SDS011;55104;47.356;19.448;2023-12-14T01:56:14;7.75;;;2.85;;
68273;SDS011;55104;47.356;19.448;2023-12-14T01:59:17;9.50;;;2.40;;
68273;SDS011;55104;47.356;19.448;2023-12-14T02:02:19;9.85;;;3.00;;
68273;SDS011;55104;47.356;19.448;2023-12-14T02:05:23;13.25;;;3.40;;
68273;SDS011;55104;47.356;19.448;2023-12-14T02:08:25;8.73;;;3.67;;
68273;SDS011;55104;47.356;19.448;2023-12-14T02:11:27;9.32;;;3.38;;
68273;SDS011;55104;47.356;19.448;2023-12-14T02:14:30;11.63;;;3.70;;
68273;SDS011;55104;47.356;19.448;2023-12-14T02:17:32;12.93;;;4.72;;
68273;SDS011;55104;47.356;19.448;2023-12-14T02:20:34;9.30;;;3.85;;
68273;SDS011;55104;47.356;19.448;2023-12-14T02:23:43;7.60;;;2.92;;
68273;SDS011;55104;47.356;19.448;2023-12-14T02:26:47;6.63;;;2.75;;
68273;SDS011;55104;47.356;19.448;2023-12-14T02:30:04;7.37;;;2.90;;
68273;SDS011;55104;47.356;19.448;2023-12-14T02:33:07;11.85;;;3.05;;
68273;SDS011;55104;47.356;19.448;2023-12-14T02:36:09;8.70;;;3.38;;
68273;SDS011;55104;47.356;19.448;2023-12-14T02:39:12;8.83;;;3.63;;
68273;SDS011;55104;47.356;19.448;2023-12-14T02:42:14;9.18;;;4.60;;
68273;SDS011;55104;47.356;19.448;2023-12-14T02:45:16;9.75;;;3.45;;
68273;SDS011;55104;47.356;19.448;2023-12-14T02:48:18;8.35;;;3.75;;
68273;SDS011;55104;47.356;19.448;2023-12-14T02:51:21;12.15;;;3.25;;
68273;SDS011;55104;47.356;19.448;2023-12-14T02:54:23;12.43;;;6.85;;
68273;SDS011;55104;47.356;19.448;2023-12-14T02:57:25;14.93;;;5.78;;
68273;SDS011;55104;47.356;19.448;2023-12-14T03:00:27;16.83;;;4.83;;
68273;SDS011;55104;47.356;19.448;2023-12-14T03:03:30;7.60;;;2.83;;
68273;SDS011;55104;47.356;19.448;2023-12-14T03:06:32;7.38;;;3.83;;
68273;SDS011;55104;47.356;19.448;2023-12-14T03:09:34;10.90;;;3.10;;
68273;SDS011;55104;47.356;19.448;2023-12-14T03:12:37;10.50;;;3.30;;
68273;SDS011;55104;47.356;19.448;2023-12-14T03:15:39;10.25;;;4.13;;
68273;SDS011;55104;47.356;19.448;2023-12-14T03:18:44;7.40;;;3.15;;
68273;SDS011;55104;47.356;19.448;2023-12-14T03:21:47;7.68;;;3.38;;
68273;SDS011;55104;47.356;19.448;2023-12-14T03:24:49;9.60;;;3.55;;
68273;SDS011;55104;47.356;19.448;2023-12-14T03:27:52;7.03;;;3.28;;
68273;SDS011;55104;47.356;19.448;2023-12-14T03:30:54;5.43;;;1.97;;
68273;SDS011;55104;47.356;19.448;2023-12-14T03:33:57;11.93;;;5.13;;
68273;SDS011;55104;47.356;19.448;2023-12-14T03:36:59;10.90;;;2.88;;
68273;SDS011;55104;47.356;19.448;2023-12-14T03:40:01;12.07;;;3.47;;
68273;SDS011;55104;47.356;19.448;2023-12-14T03:43:04;7.55;;;2.55;;
68273;SDS011;55104;47.356;19.448;2023-12-14T03:46:06;7.70;;;3.70;;
68273;SDS011;55104;47.356;19.448;2023-12-14T03:49:09;12.18;;;3.42;;
68273;SDS011;55104;47.356;19.448;2023-12-14T03:52:11;7.93;;;3.90;;
68273;SDS011;55104;47.356;19.448;2023-12-14T03:55:13;9.73;;;4.82;;
68273;SDS011;55104;47.356;19.448;2023-12-14T03:58:17;6.32;;;2.70;;
68273;SDS011;55104;47.356;19.448;2023-12-14T04:01:20;7.53;;;3.30;;
68273;SDS011;55104;47.356;19.448;2023-12-14T04:04:23;13.38;;;4.50;;
68273;SDS011;55104;47.356;19.448;2023-12-14T04:07:25;9.85;;;3.05;;
68273;SDS011;55104;47.356;19.448;2023-12-14T04:10:27;9.40;;;3.33;;
68273;SDS011;55104;47.356;19.448;2023-12-14T04:13:30;9.07;;;3.38;;
68273;SDS011;55104;47.356;19.448;2023-12-14T04:16:32;9.82;;;3.20;;
68273;SDS011;55104;47.356;19.448;2023-12-14T04:19:35;8.68;;;3.65;;
68273;SDS011;55104;47.356;19.448;2023-12-14T04:22:37;9.25;;;3.33;;
68273;SDS011;55104;47.356;19.448;2023-12-14T04:25:40;6.85;;;3.10;;
68273;SDS011;55104;47.356;19.448;2023-12-14T04:28:42;13.48;;;3.90;;
68273;SDS011;55104;47.356;19.448;2023-12-14T04:31:46;8.63;;;4.20;;
68273;SDS011;55104;47.356;19.448;2023-12-14T04:34:48;12.68;;;5.97;;
68273;SDS011;55104;47.356;19.448;2023-12-14T04:37:51;20.52;;;5.95;;
68273;SDS011;55104;47.356;19.448;2023-12-14T04:40:53;9.77;;;3.83;;
68273;SDS011;55104;47.356;19.448;2023-12-14T04:43:56;7.93;;;4.30;;
68273;SDS011;55104;47.356;19.448;2023-12-14T04:46:58;13.20;;;4.80;;
68273;SDS011;55104;47.356;19.448;2023-12-14T04:50:01;10.95;;;3.40;;
68273;SDS011;55104;47.356;19.448;2023-12-14T04:53:03;9.30;;;4.10;;
68273;SDS011;55104;47.356;19.448;2023-12-14T04:56:09;10.20;;;3.30;;
68273;SDS011;55104;47.356;19.448;2023-12-14T04:59:15;11.52;;;4.30;;
68273;SDS011;55104;47.356;19.448;2023-12-14T05:02:17;15.80;;;5.53;;
68273;SDS011;55104;47.356;19.448;2023-12-14T05:05:19;12.88;;;6.38;;
68273;SDS011;55104;47.356;19.448;2023-12-14T05:08:21;15.80;;;6.95;;
68273;SDS011;55104;47.356;19.448;2023-12-14T05:11:23;16.67;;;6.43;;
68273;SDS011;55104;47.356;19.448;2023-12-14T05:14:26;14.68;;;5.40;;
68273;SDS011;55104;47.356;19.448;2023-12-14T05:17:30;16.10;;;5.55;;
68273;SDS011;55104;47.356;19.448;2023-12-14T05:20:33;13.50;;;6.30;;
68273;SDS011;55104;47.356;19.448;2023-12-14T05:23:36;16.88;;;6.60;;
68273;SDS011;55104;47.356;19.448;2023-12-14T05:26:38;12.77;;;4.53;;
68273;SDS011;55104;47.356;19.448;2023-12-14T05:29:40;16.00;;;6.35;;
68273;SDS011;55104;47.356;19.448;2023-12-14T05:32:42;10.13;;;4.87;;
68273;SDS011;55104;47.356;19.448;2023-12-14T05:35:45;11.60;;;4.88;;
68273;SDS011;55104;47.356;19.448;2023-12-14T05:38:47;13.25;;;5.40;;
68273;SDS011;55104;47.356;19.448;2023-12-14T05:41:49;17.90;;;6.27;;
68273;SDS011;55104;47.356;19.448;2023-12-14T05:44:52;10.63;;;3.90;;
68273;SDS011;55104;47.356;19.448;2023-12-14T05:47:54;13.15;;;5.32;;
68273;SDS011;55104;47.356;19.448;2023-12-14T05:50:57;18.95;;;7.10;;
68273;SDS011;55104;47.356;19.448;2023-12-14T05:53:59;12.05;;;4.78;;
68273;SDS011;55104;47.356;19.448;2023-12-14T05:57:02;13.63;;;5.53;;
68273;SDS011;55104;47.356;19.448;2023-12-14T06:00:05;12.70;;;4.32;;
68273;SDS011;55104;47.356;19.448;2023-12-14T06:03:09;9.13;;;4.20;;
68273;SDS011;55104;47.356;19.448;2023-12-14T06:06:12;9.30;;;4.07;;
68273;SDS011;55104;47.356;19.448;2023-12-14T06:09:17;10.18;;;3.50;;
68273;SDS011;55104;47.356;19.448;2023-12-14T06:12:23;8.67;;;3.20;;
68273;SDS011;55104;47.356;19.448;2023-12-14T06:15:25;10.73;;;4.43;;
68273;SDS011;55104;47.356;19.448;2023-12-14T06:18:28;14.70;;;4.38;;
68273;SDS011;55104;47.356;19.448;2023-12-14T06:21:30;13.15;;;4.72;;
68273;SDS011;55104;47.356;19.448;2023-12-14T06:24:33;10.45;;;3.97;;
68273;SDS011;55104;47.356;19.448;2023-12-14T06:27:35;9.93;;;3.88;;
68273;SDS011;55104;47.356;19.448;2023-12-14T06:30:37;8.45;;;3.67;;
68273;SDS011;55104;47.356;19.448;2023-12-14T06:33:39;10.00;;;3.53;;
68273;SDS011;55104;47.356;19.448;2023-12-14T06:36:42;11.60;;;4.57;;
68273;SDS011;55104;47.356;19.448;2023-12-14T06:39:46;10.50;;;3.42;;
68273;SDS011;55104;47.356;19.448;2023-12-14T06:42:48;6.53;;;2.67;;
68273;SDS011;55104;47.356;19.448;2023-12-14T06:45:51;11.18;;;4.35;;
68273;SDS011;55104;47.356;19.448;2023-12-14T06:48:54;9.38;;;3.97;;
68273;SDS011;55104;47.356;19.448;2023-12-14T06:51:57;8.20;;;3.25;;
68273;SDS011;55104;47.356;19.448;2023-12-14T06:55:00;10.73;;;4.38;;
68273;SDS011;55104;47.356;19.448;2023-12-14T06:58:02;10.15;;;3.38;;
68273;SDS011;55104;47.356;19.448;2023-12-14T07:01:05;9.57;;;2.97;;
68273;SDS011;55104;47.356;19.448;2023-12-14T07:04:07;9.50;;;4.30;;
68273;SDS011;55104;47.356;19.448;2023-12-14T07:07:10;9.65;;;3.78;;
68273;SDS011;55104;47.356;19.448;2023-12-14T07:10:14;7.68;;;3.50;;
68273;SDS011;55104;47.356;19.448;2023-12-14T07:13:17;11.23;;;3.17;;
68273;SDS011;55104;47.356;19.448;2023-12-14T07:16:19;10.15;;;4.38;;
68273;SDS011;55104;47.356;19.448;2023-12-14T07:19:21;13.23;;;5.22;;
68273;SDS011;55104;47.356;19.448;2023-12-14T07:22:24;11.73;;;4.32;;
68273;SDS011;55104;47.356;19.448;2023-12-14T07:25:26;9.88;;;4.38;;
68273;SDS011;55104;47.356;19.448;2023-12-14T07:28:28;9.15;;;3.78;;
68273;SDS011;55104;47.356;19.448;2023-12-14T07:31:31;9.40;;;4.70;;
68273;SDS011;55104;47.356;19.448;2023-12-14T07:34:35;13.30;;;4.50;;
68273;SDS011;55104;47.356;19.448;2023-12-14T07:37:37;14.52;;;5.95;;
68273;SDS011;55104;47.356;19.448;2023-12-14T07:40:40;9.02;;;4.03;;
68273;SDS011;55104;47.356;19.448;2023-12-14T07:43:42;11.63;;;4.80;;
68273;SDS011;55104;47.356;19.448;2023-12-14T07:46:44;12.23;;;4.55;;
68273;SDS011;55104;47.356;19.448;2023-12-14T07:49:46;9.30;;;4.45;;
68273;SDS011;55104;47.356;19.448;2023-12-14T07:52:49;10.18;;;4.60;;
68273;SDS011;55104;47.356;19.448;2023-12-14T07:55:51;12.57;;;4.72;;
68273;SDS011;55104;47.356;19.448;2023-12-14T07:58:53;11.82;;;4.10;;
68273;SDS011;55104;47.356;19.448;2023-12-14T08:01:56;10.70;;;4.90;;
68273;SDS011;55104;47.356;19.448;2023-12-14T08:04:58;8.00;;;3.23;;
68273;SDS011;55104;47.356;19.448;2023-12-14T08:08:00;8.73;;;4.03;;
68273;SDS011;55104;47.356;19.448;2023-12-14T08:11:02;10.30;;;4.38;;
68273;SDS011;55104;47.356;19.448;2023-12-14T08:14:06;15.83;;;6.97;;
68273;SDS011;55104;47.356;19.448;2023-12-14T08:17:08;11.55;;;4.10;;
68273;SDS011;55104;47.356;19.448;2023-12-14T08:20:10;7.95;;;3.33;;
68273;SDS011;55104;47.356;19.448;2023-12-14T08:23:14;10.05;;;4.43;;
68273;SDS011;55104;47.356;19.448;2023-12-14T08:26:16;11.75;;;4.22;;
68273;SDS011;55104;47.356;19.448;2023-12-14T08:29:19;12.02;;;4.00;;
68273;SDS011;55104;47.356;19.448;2023-12-14T08:32:21;15.70;;;5.38;;
68273;SDS011;55104;47.356;19.448;2023-12-14T08:35:24;13.57;;;5.03;;
68273;SDS011;55104;47.356;19.448;2023-12-14T08:38:26;12.57;;;5.90;;
68273;SDS011;55104;47.356;19.448;2023-12-14T08:41:28;13.43;;;4.78;;
68273;SDS011;55104;47.356;19.448;2023-12-14T08:44:30;9.73;;;4.57;;
68273;SDS011;55104;47.356;19.448;2023-12-14T08:47:32;15.45;;;5.47;;
68273;SDS011;55104;47.356;19.448;2023-12-14T08:50:35;10.15;;;3.25;;
68273;SDS011;55104;47.356;19.448;2023-12-14T08:53:37;14.02;;;5.80;;
68273;SDS011;55104;47.356;19.448;2023-12-14T08:56:40;16.10;;;6.28;;
68273;SDS011;55104;47.356;19.448;2023-12-14T08:59:42;10.38;;;5.70;;
68273;SDS011;55104;47.356;19.448;2023-12-14T09:02:45;16.67;;;5.20;;
68273;SDS011;55104;47.356;19.448;2023-12-14T09:05:48;10.20;;;4.73;;
68273;SDS011;55104;47.356;19.448;2023-12-14T09:08:51;11.32;;;5.53;;
68273;SDS011;55104;47.356;19.448;2023-12-14T09:11:53;11.48;;;5.13;;
68273;SDS011;55104;47.356;19.448;2023-12-14T09:14:56;15.13;;;6.17;;
68273;SDS011;55104;47.356;19.448;2023-12-14T09:17:58;15.05;;;6.93;;
68273;SDS011;55104;47.356;19.448;2023-12-14T09:21:00;13.35;;;5.60;;
68273;SDS011;55104;47.356;19.448;2023-12-14T09:24:03;16.23;;;6.20;;
68273;SDS011;55104;47.356;19.448;2023-12-14T09:27:05;15.02;;;6.65;;
68273;SDS011;55104;47.356;19.448;2023-12-14T09:30:08;14.85;;;7.15;;
68273;SDS011;55104;47.356;19.448;2023-12-14T09:33:11;17.38;;;7.13;;
68273;SDS011;55104;47.356;19.448;2023-12-14T09:36:14;15.13;;;6.20;;
68273;SDS011;55104;47.356;19.448;2023-12-14T09:39:16;11.27;;;6.30;;
68273;SDS011;55104;47.356;19.448;2023-12-14T09:42:21;18.80;;;8.10;;
68273;SDS011;55104;47.356;19.448;2023-12-14T09:45:24;14.47;;;6.87;;
68273;SDS011;55104;47.356;19.448;2023-12-14T09:48:31;15.18;;;6.65;;
68273;SDS011;55104;47.356;19.448;2023-12-14T09:51:34;17.58;;;6.95;;
68273;SDS011;55104;47.356;19.448;2023-12-14T09:54:36;17.25;;;7.38;;
68273;SDS011;55104;47.356;19.448;2023-12-14T09:57:38;12.38;;;5.47;;
68273;SDS011;55104;47.356;19.448;2023-12-14T10:00:41;14.10;;;5.85;;
68273;SDS011;55104;47.356;19.448;2023-12-14T10:03:44;12.60;;;5.68;;
68273;SDS011;55104;47.356;19.448;2023-12-14T10:06:47;18.17;;;7.10;;
68273;SDS011;55104;47.356;19.448;2023-12-14T10:09:49;16.75;;;5.75;;
68273;SDS011;55104;47.356;19.448;2023-12-14T10:12:53;16.45;;;6.22;;
68273;SDS011;55104;47.356;19.448;2023-12-14T10:15:56;22.20;;;6.33;;
68273;SDS011;55104;47.356;19.448;2023-12-14T10:18:58;15.35;;;5.88;;
68273;SDS011;55104;47.356;19.448;2023-12-14T10:22:02;13.38;;;4.68;;
68273;SDS011;55104;47.356;19.448;2023-12-14T10:25:04;11.88;;;4.07;;
68273;SDS011;55104;47.356;19.448;2023-12-14T10:28:14;14.93;;;6.90;;
68273;SDS011;55104;47.356;19.448;2023-12-14T10:31:17;13.63;;;4.05;;
68273;SDS011;55104;47.356;19.448;2023-12-14T10:34:20;13.70;;;5.00;;
68273;SDS011;55104;47.356;19.448;2023-12-14T10:37:23;10.37;;;5.90;;
68273;SDS011;55104;47.356;19.448;2023-12-14T10:40:27;11.27;;;4.10;;
68273;SDS011;55104;47.356;19.448;2023-12-14T10:43:30;18.20;;;5.18;;
68273;SDS011;55104;47.356;19.448;2023-12-14T10:46:55;10.80;;;4.30;;
68273;SDS011;55104;47.356;19.448;2023-12-14T10:50:00;12.85;;;4.22;;
68273;SDS011;55104;47.356;19.448;2023-12-14T10:53:04;13.23;;;6.10;;
68273;SDS011;55104;47.356;19.448;2023-12-14T10:56:07;15.57;;;5.53;;
68273;SDS011;55104;47.356;19.448;2023-12-14T10:59:14;10.45;;;4.13;;
68273;SDS011;55104;47.356;19.448;2023-12-14T11:02:19;13.70;;;6.03;;
68273;SDS011;55104;47.356;19.448;2023-12-14T11:05:22;17.13;;;5.95;;
68273;SDS011;55104;47.356;19.448;2023-12-14T11:08:34;12.87;;;4.73;;
68273;SDS011;55104;47.356;19.448;2023-12-14T11:11:40;15.57;;;6.38;;
68273;SDS011;55104;47.356;19.448;2023-12-14T11:14:55;11.43;;;5.07;;
68273;SDS011;55104;47.356;19.448;2023-12-14T11:21:21;11.13;;;4.68;;
68273;SDS011;55104;47.356;19.448;2023-12-14T11:24:26;11.40;;;5.07;;
68273;SDS011;55104;47.356;19.448;2023-12-14T11:27:29;14.70;;;4.85;;
68273;SDS011;55104;47.356;19.448;2023-12-14T11:30:32;16.13;;;5.87;;
68273;SDS011;55104;47.356;19.448;2023-12-14T11:33:53;13.00;;;4.65;;
68273;SDS011;55104;47.356;19.448;2023-12-14T11:36:55;14.23;;;4.80;;
68273;SDS011;55104;47.356;19.448;2023-12-14T11:39:57;12.02;;;3.95;;
68273;SDS011;55104;47.356;19.448;2023-12-14T11:43:00;10.40;;;4.80;;
68273;SDS011;55104;47.356;19.448;2023-12-14T11:46:03;13.02;;;4.22;;
68273;SDS011;55104;47.356;19.448;2023-12-14T11:49:05;9.90;;;6.05;;
68273;SDS011;55104;47.356;19.448;2023-12-14T11:52:08;12.40;;;5.10;;
68273;SDS011;55104;47.356;19.448;2023-12-14T11:55:11;11.98;;;4.55;;
68273;SDS011;55104;47.356;19.448;2023-12-14T11:58:13;10.63;;;4.45;;
68273;SDS011;55104;47.356;19.448;2023-12-14T12:01:18;11.55;;;4.43;;
68273;SDS011;55104;47.356;19.448;2023-12-14T12:04:23;9.43;;;3.50;;
68273;SDS011;55104;47.356;19.448;2023-12-14T12:07:26;12.93;;;5.80;;
68273;SDS011;55104;47.356;19.448;2023-12-14T12:10:28;10.73;;;4.25;;
68273;SDS011;55104;47.356;19.448;2023-12-14T12:13:30;15.80;;;4.60;;
68273;SDS011;55104;47.356;19.448;2023-12-14T12:16:36;10.75;;;4.63;;
68273;SDS011;55104;47.356;19.448;2023-12-14T12:19:38;15.73;;;5.57;;
68273;SDS011;55104;47.356;19.448;2023-12-14T12:22:40;10.67;;;4.00;;
68273;SDS011;55104;47.356;19.448;2023-12-14T12:25:43;13.25;;;5.18;;
68273;SDS011;55104;47.356;19.448;2023-12-14T12:28:45;16.23;;;6.05;;
68273;SDS011;55104;47.356;19.448;2023-12-14T12:31:51;14.82;;;5.63;;
68273;SDS011;55104;47.356;19.448;2023-12-14T12:34:53;14.43;;;5.77;;
68273;SDS011;55104;47.356;19.448;2023-12-14T12:37:56;11.13;;;4.35;;
68273;SDS011;55104;47.356;19.448;2023-12-14T12:40:58;15.88;;;5.10;;
68273;SDS011;55104;47.356;19.448;2023-12-14T12:44:05;17.23;;;6.82;;
68273;SDS011;55104;47.356;19.448;2023-12-14T12:47:09;14.30;;;4.88;;
68273;SDS011;55104;47.356;19.448;2023-12-14T12:50:12;11.68;;;4.75;;
68273;SDS011;55104;47.356;19.448;2023-12-14T12:53:15;16.95;;;4.55;;
68273;SDS011;55104;47.356;19.448;2023-12-14T12:56:18;11.50;;;5.07;;
68273;SDS011;55104;47.356;19.448;2023-12-14T12:59:21;11.20;;;4.65;;
68273;SDS011;55104;47.356;19.448;2023-12-14T13:02:24;10.63;;;4.07;;
68273;SDS011;55104;47.356;19.448;2023-12-14T13:05:26;12.93;;;5.38;;
68273;SDS011;55104;47.356;19.448;2023-12-14T13:08:28;12.07;;;5.60;;
68273;SDS011;55104;47.356;19.448;2023-12-14T13:11:30;8.13;;;3.65;;
68273;SDS011;55104;47.356;19.448;2023-12-14T13:14:33;9.75;;;3.47;;
68273;SDS011;55104;47.356;19.448;2023-12-14T13:17:36;8.45;;;2.85;;
68273;SDS011;55104;47.356;19.448;2023-12-14T13:20:38;24.83;;;5.93;;
68273;SDS011;55104;47.356;19.448;2023-12-14T13:23:42;8.90;;;3.97;;
68273;SDS011;55104;47.356;19.448;2023-12-14T13:26:45;9.15;;;4.03;;
68273;SDS011;55104;47.356;19.448;2023-12-14T13:29:48;8.17;;;3.87;;
68273;SDS011;55104;47.356;19.448;2023-12-14T13:32:50;11.77;;;4.65;;
68273;SDS011;55104;47.356;19.448;2023-12-14T13:35:53;12.30;;;4.97;;
68273;SDS011;55104;47.356;19.448;2023-12-14T13:38:55;12.18;;;4.13;;
68273;SDS011;55104;47.356;19.448;2023-12-14T13:41:58;12.37;;;4.07;;
68273;SDS011;55104;47.356;19.448;2023-12-14T13:45:00;11.05;;;4.50;;
68273;SDS011;55104;47.356;19.448;2023-12-14T13:48:03;10.50;;;4.55;;
68273;SDS011;55104;47.356;19.448;2023-12-14T13:51:05;9.02;;;3.78;;
68273;SDS011;55104;47.356;19.448;2023-12-14T13:54:10;10.77;;;5.20;;
68273;SDS011;55104;47.356;19.448;2023-12-14T13:57:12;11.63;;;3.92;;
68273;SDS011;55104;47.356;19.448;2023-12-14T14:00:15;12.02;;;3.63;;
68273;SDS011;55104;47.356;19.448;2023-12-14T14:03:18;8.97;;;4.27;;
68273;SDS011;55104;47.356;19.448;2023-12-14T14:06:22;10.88;;;3.78;;
68273;SDS011;55104;47.356;19.448;2023-12-14T14:09:25;8.93;;;3.85;;
68273;SDS011;55104;47.356;19.448;2023-12-14T14:12:27;14.07;;;6.20;;
68273;SDS011;55104;47.356;19.448;2023-12-14T14:15:30;15.30;;;6.07;;
68273;SDS011;55104;47.356;19.448;2023-12-14T14:18:32;11.77;;;5.38;;
68273;SDS011;55104;47.356;19.448;2023-12-14T14:21:35;12.38;;;5.45;;
68273;SDS011;55104;47.356;19.448;2023-12-14T14:24:37;18.08;;;5.75;;
68273;SDS011;55104;47.356;19.448;2023-12-14T14:27:39;14.82;;;5.72;;
68273;SDS011;55104;47.356;19.448;2023-12-14T14:30:42;12.80;;;5.72;;
68273;SDS011;55104;47.356;19.448;2023-12-14T14:33:45;25.90;;;9.18;;
68273;SDS011;55104;47.356;19.448;2023-12-14T14:36:49;14.20;;;7.50;;
68273;SDS011;55104;47.356;19.448;2023-12-14T14:39:51;13.43;;;7.28;;
68273;SDS011;55104;47.356;19.448;2023-12-14T14:42:54;14.40;;;5.65;;
68273;SDS011;55104;47.356;19.448;2023-12-14T14:45:56;14.38;;;6.13;;
68273;SDS011;55104;47.356;19.448;2023-12-14T14:49:00;17.38;;;5.85;;
68273;SDS011;55104;47.356;19.448;2023-12-14T14:52:03;13.52;;;5.22;;
68273;SDS011;55104;47.356;19.448;2023-12-14T14:55:06;11.20;;;5.25;;
68273;SDS011;55104;47.356;19.448;2023-12-14T14:58:08;18.73;;;5.70;;
68273;SDS011;55104;47.356;19.448;2023-12-14T15:01:10;16.83;;;7.00;;
68273;SDS011;55104;47.356;19.448;2023-12-14T15:04:12;17.00;;;8.13;;
68273;SDS011;55104;47.356;19.448;2023-12-14T15:07:16;17.35;;;7.45;;
68273;SDS011;55104;47.356;19.448;2023-12-14T15:10:18;18.15;;;9.32;;
68273;SDS011;55104;47.356;19.448;2023-12-14T15:13:20;19.23;;;7.72;;
68273;SDS011;55104;47.356;19.448;2023-12-14T15:16:24;23.08;;;9.00;;
68273;SDS011;55104;47.356;19.448;2023-12-14T15:19:26;22.60;;;8.07;;
68273;SDS011;55104;47.356;19.448;2023-12-14T15:22:29;16.63;;;8.82;;
68273;SDS011;55104;47.356;19.448;2023-12-14T15:25:31;21.85;;;6.85;;
68273;SDS011;55104;47.356;19.448;2023-12-14T15:28:34;14.87;;;8.33;;
68273;SDS011;55104;47.356;19.448;2023-12-14T15:31:36;23.88;;;10.05;;
68273;SDS011;55104;47.356;19.448;2023-12-14T15:34:38;29.20;;;10.50;;
68273;SDS011;55104;47.356;19.448;2023-12-14T15:37:40;25.48;;;13.05;;
68273;SDS011;55104;47.356;19.448;2023-12-14T15:40:42;36.60;;;12.43;;
68273;SDS011;55104;47.356;19.448;2023-12-14T15:43:45;59.45;;;17.00;;
68273;SDS011;55104;47.356;19.448;2023-12-14T15:46:47;55.10;;;15.93;;
68273;SDS011;55104;47.356;19.448;2023-12-14T15:49:49;30.73;;;12.30;;
68273;SDS011;55104;47.356;19.448;2023-12-14T15:52:52;34.83;;;15.43;;
68273;SDS011;55104;47.356;19.448;2023-12-14T15:55:54;33.60;;;13.98;;
68273;SDS011;55104;47.356;19.448;2023-12-14T15:58:56;43.43;;;16.10;;
68273;SDS011;55104;47.356;19.448;2023-12-14T16:01:59;31.50;;;15.90;;
68273;SDS011;55104;47.356;19.448;2023-12-14T16:05:01;41.95;;;17.73;;
68273;SDS011;55104;47.356;19.448;2023-12-14T16:08:04;38.08;;;16.45;;
68273;SDS011;55104;47.356;19.448;2023-12-14T16:11:06;56.95;;;24.55;;
68273;SDS011;55104;47.356;19.448;2023-12-14T16:14:09;41.55;;;20.38;;
68273;SDS011;55104;47.356;19.448;2023-12-14T16:17:11;34.28;;;13.95;;
68273;SDS011;55104;47.356;19.448;2023-12-14T16:20:14;31.17;;;13.13;;
68273;SDS011;55104;47.356;19.448;2023-12-14T16:23:18;26.63;;;15.95;;
68273;SDS011;55104;47.356;19.448;2023-12-14T16:26:20;30.73;;;13.52;;
68273;SDS011;55104;47.356;19.448;2023-12-14T16:29:23;33.47;;;16.27;;
68273;SDS011;55104;47.356;19.448;2023-12-14T16:32:25;38.53;;;15.02;;
68273;SDS011;55104;47.356;19.448;2023-12-14T16:35:28;22.63;;;12.27;;
68273;SDS011;55104;47.356;19.448;2023-12-14T16:38:32;31.88;;;14.73;;
68273;SDS011;55104;47.356;19.448;2023-12-14T16:41:34;26.52;;;14.48;;
68273;SDS011;55104;47.356;19.448;2023-12-14T16:44:36;66.07;;;24.90;;
68273;SDS011;55104;47.356;19.448;2023-12-14T16:47:39;67.13;;;24.48;;
68273;SDS011;55104;47.356;19.448;2023-12-14T16:50:43;67.60;;;27.87;;
68273;SDS011;55104;47.356;19.448;2023-12-14T16:53:45;57.60;;;25.83;;
68273;SDS011;55104;47.356;19.448;2023-12-14T16:56:49;54.58;;;23.38;;
68273;SDS011;55104;47.356;19.448;2023-12-14T16:59:51;64.03;;;21.27;;
68273;SDS011;55104;47.356;19.448;2023-12-14T17:02:55;49.17;;;21.52;;
68273;SDS011;55104;47.356;19.448;2023-12-14T17:05:57;45.13;;;25.23;;
68273;SDS011;55104;47.356;19.448;2023-12-14T17:08:59;62.65;;;25.38;;
68273;SDS011;55104;47.356;19.448;2023-12-14T17:12:01;65.05;;;24.90;;
68273;SDS011;55104;47.356;19.448;2023-12-14T17:15:04;51.03;;;23.27;;
68273;SDS011;55104;47.356;19.448;2023-12-14T17:18:10;48.22;;;25.45;;
68273;SDS011;55104;47.356;19.448;2023-12-14T17:24:18;72.63;;;30.65;;
68273;SDS011;55104;47.356;19.448;2023-12-14T17:27:21;55.38;;;29.35;;
68273;SDS011;55104;47.356;19.448;2023-12-14T17:30:23;77.20;;;28.23;;
68273;SDS011;55104;47.356;19.448;2023-12-14T17:33:26;56.08;;;29.38;;
68273;SDS011;55104;47.356;19.448;2023-12-14T17:36:28;67.18;;;28.42;;
68273;SDS011;55104;47.356;19.448;2023-12-14T17:39:31;58.78;;;29.55;;
68273;SDS011;55104;47.356;19.448;2023-12-14T17:42:33;56.60;;;27.30;;
68273;SDS011;55104;47.356;19.448;2023-12-14T17:45:38;49.60;;;27.13;;
68273;SDS011;55104;47.356;19.448;2023-12-14T17:48:40;65.90;;;32.97;;
68273;SDS011;55104;47.356;19.448;2023-12-14T17:51:43;66.63;;;32.47;;
68273;SDS011;55104;47.356;19.448;2023-12-14T17:54:45;59.22;;;32.00;;
68273;SDS011;55104;47.356;19.448;2023-12-14T17:57:47;52.80;;;29.08;;